LIEO Airport Information

Runway Information
Runway 05 Length 9006 ft width 148 ft
Elevation 35 ft Threshold 805 ft Heading 53
Runway 23 Length 9006 ft Width 148 ft
Elevation 19 ft Threshold 495 ft Heading 233
Airport Frequencies
Type APP Name OLBIA RADA Frequency 125.95 MHZ
Type ATIS Name ATIS Frequency 113.9 MHZ
Type TWR Name OLBIA TWR Frequency 118.975 MHZ
Airport Navaids
Type VOR-DME Name Olbia Costa Smeralda Frequency 113900 KHZ
Type NDB Name Olbia Costa Smeralda Frequency 357 KHZ
Airport Weather Information & NOTAM
ADDS - METARS form results

(0446 UTC 06 December 2022)
Data provider http://aviationweather.gov/metar/data/
 
METAR text: LIEO 060420Z VRB01KT CAVOK 06/06 Q1015
Conditions at: LIEO (OLBIA/COSTA SMER, IT) observed 0420 UTC 06 December 2022
Temperature: 6.0°C (43°F)
Dewpoint: 6.0°C (43°F) [RH = 100%]
Pressure (altimeter): 29.97 inches Hg (1015.0 mb)
Winds: variable direction winds at 1 MPH (1 knots; 0.5 m/s)
Visibility: 6 or more miles (10+ km)
Ceiling: ceiling and visibility are OK
Clouds: unknown
Weather: no significant weather observed at this time

Forecast for: LIEO (OLBIA/COSTA SMER, IT)
Text: TAF LIEO 052300Z 0600/0624 VRB05KT CAVOK
Forecast period: 0000 UTC 06 December 2022 to 0000 UTC 07 December 2022
Forecast type: FROM: standard forecast or significant change
Winds: variable direction winds at 6 MPH (5 knots; 2.6 m/s)
Visibility: 6 or more miles (10+ km)
Ceiling: unknown
Clouds: missing
Weather: NSW  (no significant weather)